Time;durP1;ratioP1;P1;durP2;ratioP2;P2;SDS_P1;SDS_P2;PMS_P1;PMS_P2;Temp;Humidity;BMP_temperature;BMP_pressure;BME280_temperature;BME280_humidity;BME280_pressure;Samples;Min_cycle;Max_cycle;Signal;HPM_P1;HPM_P2
2021/10/03 00:00:53;;;;;;;6.60;2.42;;;;;;;;;;5048832;28;20023;-65
2021/10/03 00:03:22;;;;;;;3.88;1.98;;;;;;;;;;5050628;28;20103;-65
2021/10/03 00:05:47;;;;;;;8.70;2.42;;;;;;;;;;5051501;28;20036;-66
2021/10/03 00:08:14;;;;;;;7.45;2.42;;;;;;;;;;5051232;28;20017;-65
2021/10/03 00:10:39;;;;;;;5.07;1.60;;;;;;;;;;5050659;28;20040;-66
2021/10/03 00:13:05;;;;;;;4.10;2.67;;;;;;;;;;5050966;28;20032;-67
2021/10/03 00:15:34;;;;;;;5.95;2.35;;;;;;;;;;5050409;28;20017;-65
2021/10/03 00:17:59;;;;;;;4.75;1.95;;;;;;;;;;5051154;28;20025;-67
2021/10/03 00:20:25;;;;;;;4.32;2.45;;;;;;;;;;5051001;28;20023;-65
2021/10/03 00:22:50;;;;;;;4.25;1.80;;;;;;;;;;5050069;28;20470;-65
2021/10/03 00:25:16;;;;;;;2.95;1.63;;;;;;;;;;5051158;28;20032;-67
2021/10/03 00:27:42;;;;;;;3.92;1.60;;;;;;;;;;5050994;28;20428;-65
2021/10/03 00:30:07;;;;;;;7.93;2.22;;;;;;;;;;5050655;28;20604;-65
2021/10/03 00:32:32;;;;;;;4.65;2.50;;;;;;;;;;5048951;28;20020;-67
2021/10/03 00:34:57;;;;;;;5.28;1.75;;;;;;;;;;5050022;28;20112;-65
2021/10/03 00:37:23;;;;;;;2.80;1.50;;;;;;;;;;5050475;28;20056;-66
2021/10/03 00:39:48;;;;;;;1.33;0.93;;;;;;;;;;5050324;28;20535;-65
2021/10/03 00:42:13;;;;;;;2.40;1.57;;;;;;;;;;5049887;28;20271;-66
2021/10/03 00:44:39;;;;;;;3.83;1.85;;;;;;;;;;5050615;28;20339;-65
2021/10/03 00:47:04;;;;;;;5.05;1.60;;;;;;;;;;5050330;28;20057;-66
2021/10/03 00:49:33;;;;;;;4.38;2.38;;;;;;;;;;5050266;28;20021;-65
2021/10/03 00:51:59;;;;;;;7.90;2.40;;;;;;;;;;5049683;28;20063;-67
2021/10/03 00:54:24;;;;;;;2.35;1.63;;;;;;;;;;5049760;28;20028;-65
2021/10/03 00:56:50;;;;;;;5.18;2.47;;;;;;;;;;5050349;28;20111;-64
2021/10/03 00:59:15;;;;;;;2.33;1.63;;;;;;;;;;5050231;28;20060;-67
2021/10/03 01:01:40;;;;;;;5.00;2.75;;;;;;;;;;5050421;28;20269;-64
2021/10/03 01:04:05;;;;;;;4.65;2.72;;;;;;;;;;5049819;28;20056;-65
2021/10/03 01:06:30;;;;;;;2.67;1.48;;;;;;;;;;5050008;28;20025;-64
2021/10/03 01:08:56;;;;;;;2.28;1.45;;;;;;;;;;5050206;28;20025;-65
2021/10/03 01:11:21;;;;;;;10.60;1.83;;;;;;;;;;5049964;28;20024;-65
2021/10/03 01:13:47;;;;;;;3.40;1.97;;;;;;;;;;5049306;28;20033;-66
2021/10/03 01:16:12;;;;;;;3.63;1.65;;;;;;;;;;5050049;28;20270;-66
2021/10/03 01:18:38;;;;;;;6.30;1.52;;;;;;;;;;5050045;28;20029;-66
2021/10/03 01:21:07;;;;;;;3.73;1.60;;;;;;;;;;5049748;28;20033;-68
2021/10/03 01:23:32;;;;;;;2.28;1.33;;;;;;;;;;5049425;28;20616;-67
2021/10/03 01:25:57;;;;;;;2.92;2.15;;;;;;;;;;5049909;28;20029;-67
2021/10/03 01:28:22;;;;;;;2.85;1.70;;;;;;;;;;5049840;28;20059;-67
2021/10/03 01:30:50;;;;;;;5.73;1.93;;;;;;;;;;5049909;28;20389;-67
2021/10/03 01:33:16;;;;;;;4.32;2.33;;;;;;;;;;5049437;28;20283;-67
2021/10/03 01:35:42;;;;;;;3.05;1.70;;;;;;;;;;5049674;28;20086;-66
2021/10/03 01:38:10;;;;;;;3.35;1.58;;;;;;;;;;5045771;28;20060;-67
2021/10/03 01:40:35;;;;;;;8.15;1.92;;;;;;;;;;5049839;28;20420;-68
2021/10/03 01:43:01;;;;;;;2.03;1.13;;;;;;;;;;5049171;28;20025;-67
2021/10/03 01:45:26;;;;;;;5.60;2.08;;;;;;;;;;5049704;28;20396;-68
2021/10/03 01:48:02;;;;;;;4.65;1.70;;;;;;;;;;5050033;28;20074;-67
2021/10/03 01:50:27;;;;;;;2.50;1.40;;;;;;;;;;5049973;28;20024;-66
2021/10/03 01:52:53;;;;;;;9.63;2.08;;;;;;;;;;5049179;28;20460;-66
2021/10/03 01:55:18;;;;;;;3.60;1.70;;;;;;;;;;5049777;28;20040;-67
2021/10/03 01:57:43;;;;;;;2.72;1.25;;;;;;;;;;5049869;28;20021;-67
2021/10/03 02:00:09;;;;;;;4.13;1.47;;;;;;;;;;5048173;28;20603;-67
2021/10/03 02:02:34;;;;;;;5.35;2.20;;;;;;;;;;5049044;28;20268;-67
2021/10/03 02:04:59;;;;;;;2.70;1.53;;;;;;;;;;5049517;28;20543;-66
2021/10/03 02:07:24;;;;;;;3.60;1.88;;;;;;;;;;5049605;28;20275;-66
2021/10/03 02:09:49;;;;;;;2.30;1.13;;;;;;;;;;5048364;28;20070;-67
2021/10/03 02:12:15;;;;;;;2.40;1.38;;;;;;;;;;5049041;28;20267;-65
2021/10/03 02:14:40;;;;;;;2.63;1.53;;;;;;;;;;5049012;28;20029;-66
2021/10/03 02:17:06;;;;;;;5.27;2.00;;;;;;;;;;5052325;28;20625;-67
2021/10/03 02:19:31;;;;;;;11.82;1.90;;;;;;;;;;5052228;28;20333;-67
2021/10/03 02:21:57;;;;;;;2.33;1.90;;;;;;;;;;5052628;28;20079;-65
2021/10/03 02:24:22;;;;;;;2.92;1.45;;;;;;;;;;5053942;28;20025;-67
2021/10/03 02:26:47;;;;;;;5.57;1.58;;;;;;;;;;5053680;28;20033;-67
2021/10/03 02:29:13;;;;;;;4.90;1.48;;;;;;;;;;5053625;28;20029;-66
2021/10/03 02:31:38;;;;;;;5.00;2.40;;;;;;;;;;5053046;28;20067;-67
2021/10/03 02:34:04;;;;;;;2.50;1.00;;;;;;;;;;5052844;28;20338;-66
2021/10/03 02:36:29;;;;;;;1.52;0.80;;;;;;;;;;5053393;28;20028;-67
2021/10/03 02:38:55;;;;;;;2.35;1.70;;;;;;;;;;5053047;28;20024;-66
2021/10/03 02:41:20;;;;;;;4.07;1.38;;;;;;;;;;5053328;28;20017;-67
2021/10/03 02:43:48;;;;;;;5.80;1.70;;;;;;;;;;5052493;28;20377;-67
2021/10/03 02:46:14;;;;;;;2.25;1.52;;;;;;;;;;5052971;28;20078;-67
2021/10/03 02:48:40;;;;;;;3.80;2.22;;;;;;;;;;5052529;28;20016;-67
2021/10/03 02:51:05;;;;;;;5.82;2.15;;;;;;;;;;5052768;28;20074;-67
2021/10/03 02:53:30;;;;;;;2.88;1.98;;;;;;;;;;5051810;28;20017;-67
2021/10/03 02:55:56;;;;;;;2.40;1.50;;;;;;;;;;5052452;28;20021;-67
2021/10/03 02:58:21;;;;;;;4.95;2.67;;;;;;;;;;5052368;28;20036;-67
2021/10/03 03:00:49;;;;;;;4.68;2.17;;;;;;;;;;5052515;28;20107;-67
2021/10/03 03:03:14;;;;;;;11.00;2.17;;;;;;;;;;5052039;28;20017;-67
2021/10/03 03:05:39;;;;;;;3.73;1.97;;;;;;;;;;5052247;28;20033;-65
2021/10/03 03:08:05;;;;;;;4.13;2.47;;;;;;;;;;5052589;28;20260;-67
2021/10/03 03:10:30;;;;;;;4.72;2.22;;;;;;;;;;5052430;28;20032;-66
2021/10/03 03:12:56;;;;;;;6.90;2.03;;;;;;;;;;5052038;28;20492;-64
2021/10/03 03:15:21;;;;;;;3.00;1.87;;;;;;;;;;5051761;28;20051;-67
2021/10/03 03:17:46;;;;;;;7.30;2.30;;;;;;;;;;5052526;28;20260;-67
2021/10/03 03:20:12;;;;;;;10.23;1.73;;;;;;;;;;5049805;28;20267;-67
2021/10/03 03:22:37;;;;;;;3.88;1.73;;;;;;;;;;5050556;28;20029;-66
2021/10/03 03:25:04;;;;;;;9.13;2.20;;;;;;;;;;5051499;28;20021;-67
2021/10/03 03:27:29;;;;;;;4.03;2.33;;;;;;;;;;5051797;28;20036;-66
2021/10/03 03:29:54;;;;;;;5.38;1.60;;;;;;;;;;5051931;28;20040;-67
2021/10/03 03:32:20;;;;;;;8.03;2.43;;;;;;;;;;5051596;28;20029;-66
2021/10/03 03:34:45;;;;;;;3.13;1.83;;;;;;;;;;5051547;28;20295;-67
2021/10/03 03:37:10;;;;;;;7.35;2.30;;;;;;;;;;5051885;28;20025;-67
2021/10/03 03:39:35;;;;;;;7.13;2.70;;;;;;;;;;5051039;28;20035;-66
2021/10/03 03:42:01;;;;;;;3.83;2.00;;;;;;;;;;5051598;28;20302;-66
2021/10/03 03:44:27;;;;;;;7.70;2.40;;;;;;;;;;5050210;28;20263;-67
2021/10/03 03:46:52;;;;;;;6.10;2.55;;;;;;;;;;5051643;28;20028;-67
2021/10/03 03:49:17;;;;;;;4.60;2.67;;;;;;;;;;5051539;28;20039;-64
2021/10/03 03:51:42;;;;;;;6.07;2.90;;;;;;;;;;5051653;28;20104;-65
2021/10/03 03:54:08;;;;;;;4.32;2.25;;;;;;;;;;5051268;28;20285;-66
2021/10/03 03:56:33;;;;;;;2.85;1.52;;;;;;;;;;5048901;28;20060;-65
2021/10/03 03:58:58;;;;;;;4.43;1.60;;;;;;;;;;5051322;28;20021;-65
2021/10/03 04:01:23;;;;;;;7.70;3.33;;;;;;;;;;5050529;28;20743;-65
2021/10/03 04:03:48;;;;;;;5.68;3.53;;;;;;;;;;5051144;28;20271;-65
2021/10/03 04:06:14;;;;;;;12.80;3.03;;;;;;;;;;5051293;28;20358;-66
2021/10/03 04:08:39;;;;;;;6.27;2.63;;;;;;;;;;5051392;28;20013;-67
2021/10/03 04:11:04;;;;;;;8.15;2.35;;;;;;;;;;5050576;28;20260;-67
2021/10/03 04:13:30;;;;;;;6.45;2.63;;;;;;;;;;5050593;28;20099;-66
2021/10/03 04:15:55;;;;;;;6.18;2.80;;;;;;;;;;5050990;28;20100;-66
2021/10/03 04:18:20;;;;;;;6.13;3.10;;;;;;;;;;5050717;28;20066;-67
2021/10/03 04:20:45;;;;;;;10.73;3.80;;;;;;;;;;5050453;28;20036;-65
2021/10/03 04:23:10;;;;;;;3.13;2.33;;;;;;;;;;5050656;28;20274;-67
2021/10/03 04:25:36;;;;;;;5.73;1.93;;;;;;;;;;5050418;28;20032;-65
2021/10/03 04:28:01;;;;;;;3.88;2.25;;;;;;;;;;5050782;28;20310;-67
2021/10/03 04:30:27;;;;;;;7.40;2.40;;;;;;;;;;5051095;28;20378;-67
2021/10/03 04:32:52;;;;;;;5.55;3.05;;;;;;;;;;5050394;28;20017;-67
2021/10/03 04:35:17;;;;;;;4.78;3.22;;;;;;;;;;5050656;28;20024;-67
2021/10/03 04:37:42;;;;;;;7.93;3.95;;;;;;;;;;5050712;28;20029;-67
2021/10/03 04:40:08;;;;;;;3.92;2.35;;;;;;;;;;5049909;28;20020;-67
2021/10/03 04:42:33;;;;;;;4.90;2.88;;;;;;;;;;5049676;28;20035;-67
2021/10/03 04:44:58;;;;;;;5.03;2.53;;;;;;;;;;5050115;28;20021;-67
2021/10/03 04:47:24;;;;;;;4.07;2.58;;;;;;;;;;5050220;28;20024;-66
2021/10/03 04:49:51;;;;;;;7.13;3.42;;;;;;;;;;5050390;28;20108;-67
2021/10/03 04:52:16;;;;;;;7.15;3.83;;;;;;;;;;5049754;28;20032;-66
2021/10/03 04:54:41;;;;;;;8.43;4.20;;;;;;;;;;5050226;28;20033;-66
2021/10/03 04:57:06;;;;;;;6.80;3.45;;;;;;;;;;5050287;28;20043;-66
2021/10/03 04:59:32;;;;;;;8.70;4.43;;;;;;;;;;5050029;28;20115;-67
2021/10/03 05:01:58;;;;;;;9.60;3.20;;;;;;;;;;5049792;28;20605;-66
2021/10/03 05:04:23;;;;;;;5.78;2.90;;;;;;;;;;5049442;28;20271;-67
2021/10/03 05:06:48;;;;;;;3.85;2.50;;;;;;;;;;5049650;28;20032;-67
2021/10/03 05:09:14;;;;;;;6.70;3.77;;;;;;;;;;5050230;28;20029;-66
2021/10/03 05:11:39;;;;;;;8.07;2.27;;;;;;;;;;5049863;28;20302;-67
2021/10/03 05:14:06;;;;;;;6.17;3.50;;;;;;;;;;5049818;28;20111;-64
2021/10/03 05:16:32;;;;;;;11.20;4.45;;;;;;;;;;5050005;28;20260;-67
2021/10/03 05:18:58;;;;;;;10.90;3.08;;;;;;;;;;5050284;28;20017;-67
2021/10/03 05:21:23;;;;;;;7.68;5.00;;;;;;;;;;5049658;28;20025;-67
2021/10/03 05:23:48;;;;;;;10.02;3.60;;;;;;;;;;5049613;28;20032;-66
2021/10/03 05:26:13;;;;;;;5.13;2.93;;;;;;;;;;5049978;28;20033;-67
2021/10/03 05:28:38;;;;;;;9.67;3.47;;;;;;;;;;5050168;28;20021;-66
2021/10/03 05:31:04;;;;;;;5.97;3.30;;;;;;;;;;5049605;28;20033;-67
2021/10/03 05:33:29;;;;;;;6.00;3.47;;;;;;;;;;5048944;28;20287;-67
2021/10/03 05:35:54;;;;;;;9.98;3.75;;;;;;;;;;5049797;28;20531;-68
2021/10/03 05:38:19;;;;;;;6.30;3.50;;;;;;;;;;5049601;28;20477;-67
2021/10/03 05:40:45;;;;;;;11.82;3.75;;;;;;;;;;5050176;28;20325;-67
2021/10/03 05:43:10;;;;;;;6.03;3.17;;;;;;;;;;5049349;28;20071;-67
2021/10/03 05:45:35;;;;;;;9.20;3.33;;;;;;;;;;5049646;28;20286;-66
2021/10/03 05:48:00;;;;;;;7.50;3.75;;;;;;;;;;5050075;28;20648;-67
2021/10/03 05:50:26;;;;;;;9.20;4.68;;;;;;;;;;5049508;28;20028;-66
2021/10/03 05:52:51;;;;;;;4.18;2.42;;;;;;;;;;5053801;28;20040;-67
2021/10/03 05:55:16;;;;;;;6.03;2.75;;;;;;;;;;5053385;28;20032;-67
2021/10/03 05:57:41;;;;;;;6.20;3.57;;;;;;;;;;5053889;28;20393;-67
2021/10/03 06:00:06;;;;;;;5.90;3.07;;;;;;;;;;5053990;28;20264;-67
2021/10/03 06:02:32;;;;;;;4.88;2.83;;;;;;;;;;5052746;28;20279;-65
2021/10/03 06:04:57;;;;;;;7.65;4.03;;;;;;;;;;5051936;28;20036;-67
2021/10/03 06:07:22;;;;;;;9.27;2.30;;;;;;;;;;5052520;28;20086;-67
2021/10/03 06:09:47;;;;;;;13.40;3.38;;;;;;;;;;5049408;28;20376;-68
2021/10/03 06:12:13;;;;;;;5.43;2.40;;;;;;;;;;5052449;28;20040;-67
2021/10/03 06:14:38;;;;;;;7.57;3.30;;;;;;;;;;5053013;28;20033;-67
2021/10/03 06:17:03;;;;;;;9.50;4.72;;;;;;;;;;5053510;28;20024;-65
2021/10/03 06:19:28;;;;;;;4.95;2.67;;;;;;;;;;5052790;28;20100;-66
2021/10/03 06:21:54;;;;;;;21.40;2.92;;;;;;;;;;5053023;28;20087;-67
2021/10/03 06:24:22;;;;;;;11.48;3.03;;;;;;;;;;5053146;28;20037;-64
2021/10/03 06:26:47;;;;;;;6.90;1.95;;;;;;;;;;5052890;28;20025;-65
2021/10/03 06:29:16;;;;;;;8.60;4.00;;;;;;;;;;5051438;28;20199;-65
2021/10/03 06:31:41;;;;;;;3.55;2.13;;;;;;;;;;5052021;28;20087;-65
2021/10/03 06:34:06;;;;;;;4.75;2.05;;;;;;;;;;5042226;28;20034;-65
2021/10/03 06:36:31;;;;;;;5.97;2.40;;;;;;;;;;5044261;28;20029;-66
2021/10/03 06:38:57;;;;;;;6.00;3.42;;;;;;;;;;5053133;28;20263;-64
2021/10/03 06:41:22;;;;;;;9.30;4.63;;;;;;;;;;5052617;28;20036;-65
2021/10/03 06:43:47;;;;;;;5.93;2.88;;;;;;;;;;5052395;28;20028;-66
2021/10/03 06:46:12;;;;;;;5.18;2.90;;;;;;;;;;5052767;28;20017;-65
2021/10/03 06:48:38;;;;;;;5.38;3.22;;;;;;;;;;5052519;28;20040;-66
2021/10/03 06:51:03;;;;;;;5.85;3.55;;;;;;;;;;5052665;28;20025;-65
2021/10/03 06:53:28;;;;;;;5.82;3.35;;;;;;;;;;5051558;28;20028;-65
2021/10/03 06:55:54;;;;;;;11.25;3.88;;;;;;;;;;5052546;28;20478;-65
2021/10/03 06:58:19;;;;;;;4.55;2.78;;;;;;;;;;5052388;28;20017;-64
2021/10/03 07:00:44;;;;;;;6.70;3.92;;;;;;;;;;5049172;28;20023;-64
2021/10/03 07:03:09;;;;;;;5.72;2.75;;;;;;;;;;5051561;28;20028;-65
2021/10/03 07:05:35;;;;;;;7.70;2.80;;;;;;;;;;5050927;28;20305;-66
2021/10/03 07:08:01;;;;;;;5.87;4.00;;;;;;;;;;5052336;28;20358;-66
2021/10/03 07:10:26;;;;;;;11.23;2.35;;;;;;;;;;5052131;28;20258;-64
2021/10/03 07:12:51;;;;;;;10.07;3.23;;;;;;;;;;5051645;28;20025;-64
2021/10/03 07:15:16;;;;;;;6.67;4.53;;;;;;;;;;5052354;28;20778;-65
2021/10/03 07:17:41;;;;;;;11.38;4.38;;;;;;;;;;5052498;28;20299;-65
2021/10/03 07:20:07;;;;;;;7.37;3.60;;;;;;;;;;5052393;28;20021;-65
2021/10/03 07:22:32;;;;;;;8.52;3.67;;;;;;;;;;5051089;28;20633;-64
2021/10/03 07:24:57;;;;;;;6.00;3.83;;;;;;;;;;5051659;28;20381;-67
2021/10/03 07:27:23;;;;;;;5.85;3.00;;;;;;;;;;5051974;28;20271;-65
2021/10/03 07:29:48;;;;;;;8.25;2.65;;;;;;;;;;5051991;28;20025;-67
2021/10/03 07:32:13;;;;;;;3.17;2.17;;;;;;;;;;5051287;28;20039;-65
2021/10/03 07:34:38;;;;;;;3.80;2.85;;;;;;;;;;5052171;28;20284;-67
2021/10/03 07:37:04;;;;;;;3.72;2.22;;;;;;;;;;5051890;28;20146;-66
2021/10/03 07:39:30;;;;;;;4.20;2.47;;;;;;;;;;5051784;28;20079;-67
2021/10/03 07:41:56;;;;;;;10.25;2.75;;;;;;;;;;5051271;28;20488;-67
2021/10/03 07:44:21;;;;;;;8.13;3.38;;;;;;;;;;5051479;28;20025;-67
2021/10/03 07:46:46;;;;;;;6.40;2.80;;;;;;;;;;5051557;28;20037;-67
2021/10/03 07:49:12;;;;;;;6.65;3.08;;;;;;;;;;5051261;28;20264;-67
2021/10/03 07:51:37;;;;;;;8.45;4.40;;;;;;;;;;5051990;28;20032;-67
2021/10/03 07:54:03;;;;;;;4.30;3.15;;;;;;;;;;5050576;28;20098;-67
2021/10/03 07:56:28;;;;;;;5.27;2.67;;;;;;;;;;5048582;28;20020;-66
2021/10/03 07:58:53;;;;;;;7.18;2.67;;;;;;;;;;5047569;28;20670;-67
2021/10/03 08:01:18;;;;;;;12.83;4.00;;;;;;;;;;5048639;28;20025;-65
2021/10/03 08:03:44;;;;;;;5.93;2.77;;;;;;;;;;5049351;28;20343;-68
2021/10/03 08:06:09;;;;;;;7.10;3.42;;;;;;;;;;5049131;28;20636;-67
2021/10/03 08:08:34;;;;;;;5.07;2.50;;;;;;;;;;5049142;28;20491;-67
2021/10/03 08:10:59;;;;;;;3.50;2.08;;;;;;;;;;5048579;28;20802;-67
2021/10/03 08:13:24;;;;;;;8.77;4.18;;;;;;;;;;5047340;28;20036;-66
2021/10/03 08:15:50;;;;;;;6.13;3.72;;;;;;;;;;5046197;28;20025;-66
2021/10/03 08:18:15;;;;;;;14.00;2.53;;;;;;;;;;5048571;28;20047;-66
2021/10/03 08:20:41;;;;;;;5.53;2.97;;;;;;;;;;5045155;28;20028;-67
2021/10/03 08:23:06;;;;;;;8.57;3.42;;;;;;;;;;5045961;28;20046;-66
2021/10/03 08:25:32;;;;;;;8.23;2.33;;;;;;;;;;5046828;28;20405;-67
2021/10/03 08:27:57;;;;;;;5.53;2.80;;;;;;;;;;5047936;28;20032;-64
2021/10/03 08:30:23;;;;;;;5.38;3.70;;;;;;;;;;5047994;28;20025;-66
2021/10/03 08:32:49;;;;;;;6.55;3.13;;;;;;;;;;5048306;28;20166;-67
2021/10/03 08:35:14;;;;;;;4.95;3.40;;;;;;;;;;5048630;28;20129;-66
2021/10/03 08:37:39;;;;;;;6.95;4.28;;;;;;;;;;5048681;28;20367;-67
2021/10/03 08:40:06;;;;;;;6.20;3.53;;;;;;;;;;5048104;28;20020;-66
2021/10/03 08:42:32;;;;;;;4.72;2.75;;;;;;;;;;5043602;28;20025;-67
2021/10/03 08:44:57;;;;;;;10.00;3.80;;;;;;;;;;5048824;28;20025;-67
2021/10/03 08:47:23;;;;;;;6.07;3.08;;;;;;;;;;5047079;28;20032;-66
2021/10/03 08:49:48;;;;;;;6.65;2.38;;;;;;;;;;5044114;28;20085;-66
2021/10/03 08:52:14;;;;;;;5.63;3.47;;;;;;;;;;5047979;28;20475;-66
2021/10/03 08:54:40;;;;;;;4.83;3.07;;;;;;;;;;5045830;28;20020;-67
2021/10/03 08:57:06;;;;;;;8.80;2.67;;;;;;;;;;5048227;28;20405;-67
2021/10/03 08:59:31;;;;;;;4.22;2.45;;;;;;;;;;5047345;28;20132;-65
2021/10/03 09:01:57;;;;;;;6.90;2.63;;;;;;;;;;5047342;28;20136;-67
2021/10/03 09:04:23;;;;;;;4.03;2.85;;;;;;;;;;5047453;28;20029;-66
2021/10/03 09:06:59;;;;;;;5.72;2.80;;;;;;;;;;5047983;28;20500;-66
2021/10/03 09:09:44;;;;;;;6.43;2.97;;;;;;;;;;5046300;28;20036;-66
2021/10/03 09:12:25;;;;;;;9.13;2.75;;;;;;;;;;5047600;28;20033;-67
2021/10/03 09:14:50;;;;;;;5.03;2.42;;;;;;;;;;5046647;28;20029;-65
2021/10/03 09:17:17;;;;;;;5.95;2.35;;;;;;;;;;5046545;28;20107;-66
2021/10/03 09:20:01;;;;;;;6.85;2.92;;;;;;;;;;5047721;28;20013;-66
2021/10/03 09:22:26;;;;;;;5.80;2.75;;;;;;;;;;5046399;28;20029;-67
2021/10/03 09:24:52;;;;;;;6.90;3.83;;;;;;;;;;5047866;28;20033;-67
2021/10/03 09:27:17;;;;;;;4.63;3.20;;;;;;;;;;5047145;28;20271;-66
2021/10/03 09:29:42;;;;;;;3.47;2.77;;;;;;;;;;5046043;28;20044;-66
2021/10/03 09:32:17;;;;;;;7.20;3.43;;;;;;;;;;5047151;28;20272;-67
2021/10/03 09:34:46;;;;;;;11.25;4.00;;;;;;;;;;5045217;28;20283;-67
2021/10/03 09:37:25;;;;;;;9.45;3.28;;;;;;;;;;5045919;28;20013;-65
2021/10/03 09:40:04;;;;;;;8.50;2.58;;;;;;;;;;5047136;28;20028;-67
2021/10/03 09:42:30;;;;;;;9.35;2.50;;;;;;;;;;5045265;28;20405;-64
2021/10/03 09:45:09;;;;;;;6.20;3.25;;;;;;;;;;5047167;28;20025;-66
2021/10/03 09:47:35;;;;;;;3.53;1.95;;;;;;;;;;5047273;28;20029;-65
2021/10/03 09:50:01;;;;;;;3.60;2.33;;;;;;;;;;5048182;28;20031;-64
2021/10/03 09:52:27;;;;;;;9.60;4.78;;;;;;;;;;5047710;28;20041;-63
2021/10/03 09:54:52;;;;;;;12.65;4.32;;;;;;;;;;5046508;28;20035;-66
2021/10/03 09:57:18;;;;;;;7.00;3.70;;;;;;;;;;5043338;28;20013;-66
2021/10/03 09:59:44;;;;;;;3.95;2.28;;;;;;;;;;5047667;28;20500;-67
2021/10/03 10:02:10;;;;;;;7.70;3.78;;;;;;;;;;5047195;28;20032;-67
2021/10/03 10:04:35;;;;;;;4.38;2.17;;;;;;;;;;5046748;28;20029;-66
2021/10/03 10:07:01;;;;;;;3.53;2.08;;;;;;;;;;5047607;28;20067;-65
2021/10/03 10:09:28;;;;;;;4.40;2.67;;;;;;;;;;5047612;28;20465;-67
2021/10/03 10:12:01;;;;;;;9.38;3.38;;;;;;;;;;5046575;28;20492;-66
2021/10/03 10:14:28;;;;;;;9.07;3.17;;;;;;;;;;5046852;28;20028;-64
2021/10/03 10:16:57;;;;;;;13.23;2.95;;;;;;;;;;5041537;28;20048;-66
2021/10/03 10:19:27;;;;;;;4.68;2.95;;;;;;;;;;5047017;28;20021;-66
2021/10/03 10:22:11;;;;;;;3.55;2.30;;;;;;;;;;5047790;28;20048;-66
2021/10/03 10:24:55;;;;;;;10.80;2.08;;;;;;;;;;5046174;28;20394;-66
2021/10/03 10:27:29;;;;;;;5.03;3.70;;;;;;;;;;5046863;28;20064;-66
2021/10/03 10:30:11;;;;;;;6.97;3.33;;;;;;;;;;5047532;28;20060;-66
2021/10/03 10:32:55;;;;;;;2.55;1.65;;;;;;;;;;5046439;28;20047;-65
2021/10/03 10:35:21;;;;;;;4.45;2.65;;;;;;;;;;5042209;28;20021;-66
2021/10/03 10:37:49;;;;;;;3.20;2.15;;;;;;;;;;5049148;28;20025;-66
2021/10/03 10:40:21;;;;;;;10.15;2.97;;;;;;;;;;5050003;28;20040;-67
2021/10/03 10:42:46;;;;;;;5.82;3.20;;;;;;;;;;5046237;28;20029;-66
2021/10/03 10:45:27;;;;;;;3.90;2.25;;;;;;;;;;5050490;28;20313;-66
2021/10/03 10:48:10;;;;;;;5.68;3.65;;;;;;;;;;5050833;28;20017;-65
2021/10/03 10:50:44;;;;;;;6.85;3.08;;;;;;;;;;5051864;28;20527;-67
2021/10/03 10:53:22;;;;;;;4.68;3.17;;;;;;;;;;5052544;28;20029;-67
2021/10/03 10:55:59;;;;;;;3.67;2.35;;;;;;;;;;5052241;28;20048;-67
2021/10/03 10:58:25;;;;;;;7.97;3.20;;;;;;;;;;5052195;28;20017;-63
2021/10/03 11:00:58;;;;;;;6.05;3.22;;;;;;;;;;5052794;28;20021;-67
2021/10/03 11:03:42;;;;;;;3.90;2.75;;;;;;;;;;5051780;28;20413;-66
2021/10/03 11:06:11;;;;;;;4.85;1.90;;;;;;;;;;5052027;28;20366;-66
2021/10/03 11:08:55;;;;;;;10.23;3.17;;;;;;;;;;5052312;28;20521;-66
2021/10/03 11:11:20;;;;;;;8.73;2.58;;;;;;;;;;5052219;28;20028;-66
2021/10/03 11:13:51;;;;;;;9.57;3.57;;;;;;;;;;5051718;28;20378;-67
2021/10/03 11:16:27;;;;;;;4.53;2.28;;;;;;;;;;5052218;28;20275;-66
2021/10/03 11:18:53;;;;;;;12.75;3.97;;;;;;;;;;5052025;28;20104;-65
2021/10/03 11:21:26;;;;;;;5.20;2.47;;;;;;;;;;5051123;28;20569;-67
2021/10/03 11:23:52;;;;;;;5.60;2.42;;;;;;;;;;5051437;28;20021;-66
2021/10/03 11:26:19;;;;;;;5.35;1.77;;;;;;;;;;5051809;28;20385;-64
2021/10/03 11:29:03;;;;;;;8.48;2.58;;;;;;;;;;5052099;28;20017;-67
2021/10/03 11:31:49;;;;;;;2.95;1.67;;;;;;;;;;5051775;28;20052;-66
2021/10/03 11:34:50;;;;;;;6.07;3.15;;;;;;;;;;5050809;28;20017;-66
2021/10/03 11:37:54;;;;;;;5.78;2.30;;;;;;;;;;5009876;28;20028;-66
2021/10/03 11:40:23;;;;;;;4.18;2.85;;;;;;;;;;5009387;28;20191;-67
2021/10/03 11:42:52;;;;;;;11.53;4.33;;;;;;;;;;5009767;28;20092;-65
2021/10/03 11:45:27;;;;;;;2.53;1.63;;;;;;;;;;5030224;28;20363;-66
2021/10/03 11:47:54;;;;;;;3.67;2.42;;;;;;;;;;5050265;28;20299;-66
2021/10/03 11:50:27;;;;;;;3.38;2.28;;;;;;;;;;5046592;28;20020;-67
2021/10/03 11:52:55;;;;;;;7.30;2.17;;;;;;;;;;5050510;28;20025;-67
2021/10/03 11:55:21;;;;;;;8.93;3.40;;;;;;;;;;5051241;28;20381;-66
2021/10/03 11:57:47;;;;;;;3.85;1.80;;;;;;;;;;5051339;28;20017;-67
2021/10/03 12:00:18;;;;;;;3.10;2.15;;;;;;;;;;5051107;28;20555;-66
2021/10/03 12:02:43;;;;;;;;;;;;;;;;;;5051095;28;20029;-67
2021/10/03 12:05:09;;;;;;;3.30;1.73;;;;;;;;;;5051205;28;20000;-66
2021/10/03 12:07:34;;;;;;;6.15;3.40;;;;;;;;;;5050974;28;20044;-67
2021/10/03 12:10:11;;;;;;;4.50;2.45;;;;;;;;;;5050825;28;20035;-66
2021/10/03 12:12:48;;;;;;;7.35;3.85;;;;;;;;;;5047193;28;20381;-67
2021/10/03 12:15:32;;;;;;;12.63;2.90;;;;;;;;;;5050180;28;20021;-65
2021/10/03 12:17:57;;;;;;;4.72;2.13;;;;;;;;;;5050512;28;20024;-66
2021/10/03 12:20:22;;;;;;;9.17;3.70;;;;;;;;;;5050817;28;20029;-65
2021/10/03 12:22:54;;;;;;;6.00;3.53;;;;;;;;;;5086965;22;20353;-68
2021/10/03 12:25:20;;;;;;;6.60;3.22;;;;;;;;;;5090140;28;20346;-66
2021/10/03 12:27:58;;;;;;;7.65;3.70;;;;;;;;;;5091095;28;20020;-66
2021/10/03 12:30:23;;;;;;;4.38;2.50;;;;;;;;;;5090926;28;20031;-68
2021/10/03 12:33:01;;;;;;;4.57;2.58;;;;;;;;;;5090363;28;20027;-69
2021/10/03 12:35:26;;;;;;;5.53;2.92;;;;;;;;;;5084969;28;20024;-69
2021/10/03 12:37:51;;;;;;;7.18;3.85;;;;;;;;;;5082653;28;20617;-67
2021/10/03 12:40:21;;;;;;;8.30;4.30;;;;;;;;;;5087207;28;20016;-67
2021/10/03 12:42:46;;;;;;;3.30;1.42;;;;;;;;;;5083543;28;20316;-66
2021/10/03 12:45:11;;;;;;;7.00;2.97;;;;;;;;;;5086110;28;20024;-67
2021/10/03 12:47:40;;;;;;;9.55;3.38;;;;;;;;;;5083318;28;20426;-66
2021/10/03 12:50:05;;;;;;;6.28;3.33;;;;;;;;;;5088093;28;20084;-70
2021/10/03 12:52:30;;;;;;;8.93;2.97;;;;;;;;;;5090511;28;20051;-68
2021/10/03 12:54:56;;;;;;;5.10;3.00;;;;;;;;;;5089770;28;20024;-67
2021/10/03 12:57:21;;;;;;;9.55;3.35;;;;;;;;;;5090541;28;20094;-67
2021/10/03 12:59:47;;;;;;;14.40;2.80;;;;;;;;;;5089477;28;20048;-68
2021/10/03 13:02:12;;;;;;;6.53;2.30;;;;;;;;;;5081424;28;20463;-68
2021/10/03 13:04:37;;;;;;;6.70;2.78;;;;;;;;;;5090564;28;20270;-67
2021/10/03 13:07:03;;;;;;;4.70;2.45;;;;;;;;;;5090170;28;20032;-68
2021/10/03 13:09:28;;;;;;;5.50;2.40;;;;;;;;;;5086556;28;20024;-67
2021/10/03 13:11:53;;;;;;;12.90;2.57;;;;;;;;;;5088769;28;20389;-67
2021/10/03 13:14:18;;;;;;;6.10;2.08;;;;;;;;;;5088437;28;20390;-67
2021/10/03 13:16:44;;;;;;;3.80;2.03;;;;;;;;;;5086746;28;20048;-67
2021/10/03 13:19:09;;;;;;;4.80;2.17;;;;;;;;;;5090481;28;20036;-67
2021/10/03 13:21:35;;;;;;;7.00;1.90;;;;;;;;;;5089200;28;20380;-67
2021/10/03 13:24:01;;;;;;;5.00;2.65;;;;;;;;;;5089933;28;20258;-66
2021/10/03 13:26:26;;;;;;;5.00;2.45;;;;;;;;;;5089858;28;20016;-66
2021/10/03 13:28:51;;;;;;;4.13;2.67;;;;;;;;;;5088790;28;20012;-66
2021/10/03 13:31:16;;;;;;;5.60;1.88;;;;;;;;;;5089561;28;20031;-68
2021/10/03 13:33:42;;;;;;;7.67;2.90;;;;;;;;;;5089541;28;20024;-66
2021/10/03 13:36:07;;;;;;;6.68;2.97;;;;;;;;;;5089267;28;20290;-66
2021/10/03 13:38:32;;;;;;;3.42;1.70;;;;;;;;;;5090158;28;20024;-66
2021/10/03 13:41:02;;;;;;;3.00;2.27;;;;;;;;;;5089882;28;20091;-67
2021/10/03 13:43:28;;;;;;;5.50;2.25;;;;;;;;;;5089151;28;20803;-66
2021/10/03 13:45:53;;;;;;;3.53;2.15;;;;;;;;;;5089467;28;20032;-68
2021/10/03 13:48:18;;;;;;;6.43;2.00;;;;;;;;;;5089859;28;20020;-65
2021/10/03 13:50:43;;;;;;;4.27;1.83;;;;;;;;;;5088647;28;20028;-67
2021/10/03 13:53:08;;;;;;;2.57;1.60;;;;;;;;;;5084134;28;20112;-66
2021/10/03 13:55:34;;;;;;;7.22;2.35;;;;;;;;;;5089978;28;20032;-66
2021/10/03 13:57:59;;;;;;;3.27;2.00;;;;;;;;;;5090076;28;20063;-67
2021/10/03 14:00:24;;;;;;;3.60;2.40;;;;;;;;;;5087080;28;20307;-66
2021/10/03 14:02:49;;;;;;;1.40;1.00;;;;;;;;;;5080217;28;20270;-65
2021/10/03 14:05:15;;;;;;;3.73;1.60;;;;;;;;;;5084435;28;20758;-66
2021/10/03 14:07:41;;;;;;;2.88;1.50;;;;;;;;;;5089357;28;20107;-66
2021/10/03 14:10:07;;;;;;;2.72;1.60;;;;;;;;;;5088772;28;20028;-67
2021/10/03 14:12:32;;;;;;;4.75;1.35;;;;;;;;;;5090631;28;20032;-66
2021/10/03 14:14:58;;;;;;;2.30;0.98;;;;;;;;;;5092794;28;20482;-66
2021/10/03 14:17:23;;;;;;;4.88;1.80;;;;;;;;;;5091139;28;20046;-66
2021/10/03 14:19:51;;;;;;;2.30;1.45;;;;;;;;;;5088785;28;20022;-69
2021/10/03 14:22:16;;;;;;;2.33;1.60;;;;;;;;;;5087743;28;20012;-69
2021/10/03 14:24:42;;;;;;;5.82;1.48;;;;;;;;;;5093523;28;20031;-67
2021/10/03 14:27:07;;;;;;;1.83;1.00;;;;;;;;;;5093361;28;20103;-67
2021/10/03 14:29:33;;;;;;;2.53;1.50;;;;;;;;;;5093641;28;20016;-68
2021/10/03 14:31:58;;;;;;;3.53;1.30;;;;;;;;;;5088622;28;20028;-66
2021/10/03 14:34:23;;;;;;;2.43;1.20;;;;;;;;;;5091842;28;20020;-68
2021/10/03 14:36:48;;;;;;;2.65;1.75;;;;;;;;;;5085185;28;20258;-67
2021/10/03 14:39:14;;;;;;;2.83;1.10;;;;;;;;;;5093088;28;20019;-67
2021/10/03 14:41:39;;;;;;;4.32;1.13;;;;;;;;;;5088615;28;20051;-69